Time;durP1;ratioP1;P1;durP2;ratioP2;P2;SDS_P1;SDS_P2;PMS_P1;PMS_P2;Temp;Humidity;BMP_temperature;BMP_pressure;BME280_temperature;BME280_humidity;BME280_pressure;Samples;Min_cycle;Max_cycle;Signal;HPM_P1;HPM_P2
2022/07/03 00:01:23;;;;;;;2.55;1.50;;;;;;;;;;5073592;28;20040;-61
2022/07/03 00:03:49;;;;;;;4.60;1.50;;;;;;;;;;5072720;28;20363;-61
2022/07/03 00:06:16;;;;;;;8.18;2.03;;;;;;;;;;5072854;28;20111;-61
2022/07/03 00:08:42;;;;;;;6.18;1.70;;;;;;;;;;5073131;28;20031;-61
2022/07/03 00:11:08;;;;;;;5.72;2.92;;;;;;;;;;5072720;28;20020;-61
2022/07/03 00:13:35;;;;;;;2.78;1.60;;;;;;;;;;5073075;28;20044;-61
2022/07/03 00:16:01;;;;;;;5.05;1.67;;;;;;;;;;5072959;28;20032;-61
2022/07/03 00:18:27;;;;;;;6.07;1.50;;;;;;;;;;5073057;28;20489;-61
2022/07/03 00:21:04;;;;;;;3.22;1.55;;;;;;;;;;5072640;28;20460;-61
2022/07/03 00:23:46;;;;;;;6.95;1.65;;;;;;;;;;5053123;28;20020;-61
2022/07/03 00:26:17;;;;;;;3.75;1.50;;;;;;;;;;5052379;28;20367;-61
2022/07/03 00:28:43;;;;;;;5.22;1.63;;;;;;;;;;5052916;28;20029;-61
2022/07/03 00:31:11;;;;;;;6.55;1.52;;;;;;;;;;5067071;28;20024;-61
2022/07/03 00:33:37;;;;;;;7.15;1.42;;;;;;;;;;5072741;28;20035;-61
2022/07/03 00:36:03;;;;;;;4.45;1.73;;;;;;;;;;5072549;28;20394;-61
2022/07/03 00:38:30;;;;;;;2.65;1.33;;;;;;;;;;5072623;28;20397;-61
2022/07/03 00:40:56;;;;;;;4.28;1.17;;;;;;;;;;5072351;28;20098;-61
2022/07/03 00:43:25;;;;;;;4.40;1.10;;;;;;;;;;5072485;28;20016;-61
2022/07/03 00:45:53;;;;;;;4.07;1.33;;;;;;;;;;5072456;28;20527;-61
2022/07/03 00:48:20;;;;;;;7.53;1.98;;;;;;;;;;5072580;28;20060;-61
2022/07/03 00:50:47;;;;;;;9.40;1.60;;;;;;;;;;5072580;28;20054;-61
2022/07/03 00:53:14;;;;;;;6.80;2.05;;;;;;;;;;5072365;28;20448;-61
2022/07/03 00:55:41;;;;;;;7.88;1.20;;;;;;;;;;5072086;28;20028;-61
2022/07/03 00:58:08;;;;;;;5.53;1.33;;;;;;;;;;5072289;28;20107;-61
2022/07/03 01:00:35;;;;;;;4.15;1.58;;;;;;;;;;5072426;28;20078;-61
2022/07/03 01:03:11;;;;;;;7.95;1.38;;;;;;;;;;5072325;28;20024;-61
2022/07/03 01:05:43;;;;;;;11.65;1.83;;;;;;;;;;5071889;28;20481;-61
2022/07/03 01:08:27;;;;;;;7.38;1.38;;;;;;;;;;5071461;28;20428;-61
2022/07/03 01:11:04;;;;;;;1.67;1.30;;;;;;;;;;5072187;28;20028;-61
2022/07/03 01:13:39;;;;;;;5.00;1.38;;;;;;;;;;5072356;28;20052;-61
2022/07/03 01:16:17;;;;;;;4.25;1.05;;;;;;;;;;5072162;28;20036;-61
2022/07/03 01:18:44;;;;;;;3.42;1.27;;;;;;;;;;5072133;28;20494;-61
2022/07/03 01:21:31;;;;;;;6.53;2.08;;;;;;;;;;5072096;28;20029;-61
2022/07/03 01:24:04;;;;;;;11.80;2.63;;;;;;;;;;5061429;28;20036;-61
2022/07/03 01:26:35;;;;;;;7.93;1.48;;;;;;;;;;5071604;28;20135;-61
2022/07/03 01:29:07;;;;;;;2.83;1.40;;;;;;;;;;5071946;28;20033;-61
2022/07/03 01:31:33;;;;;;;4.40;1.20;;;;;;;;;;5072152;28;20131;-61
2022/07/03 01:34:02;;;;;;;4.60;1.40;;;;;;;;;;5071778;28;20028;-61
2022/07/03 01:36:29;;;;;;;11.05;1.63;;;;;;;;;;5072040;28;20051;-61
2022/07/03 01:38:56;;;;;;;10.85;1.40;;;;;;;;;;5071368;28;20478;-61
2022/07/03 01:41:23;;;;;;;2.72;1.48;;;;;;;;;;5071968;28;20036;-63
2022/07/03 01:43:50;;;;;;;7.15;1.30;;;;;;;;;;5072023;28;20024;-62
2022/07/03 01:46:21;;;;;;;2.17;1.20;;;;;;;;;;5071462;28;20123;-61
2022/07/03 01:48:48;;;;;;;8.00;1.35;;;;;;;;;;5072028;28;20100;-61
2022/07/03 01:51:14;;;;;;;5.75;1.10;;;;;;;;;;5071757;28;20383;-61
2022/07/03 01:53:44;;;;;;;3.85;1.20;;;;;;;;;;5071549;28;20029;-61
2022/07/03 01:56:10;;;;;;;2.40;1.23;;;;;;;;;;5071275;28;20162;-61
2022/07/03 01:58:36;;;;;;;3.78;1.35;;;;;;;;;;5071960;28;20021;-61
2022/07/03 02:01:05;;;;;;;3.80;1.98;;;;;;;;;;5070306;28;20033;-61
2022/07/03 02:03:33;;;;;;;2.17;1.10;;;;;;;;;;5071848;28;20121;-61
2022/07/03 02:06:12;;;;;;;5.47;1.20;;;;;;;;;;5071522;28;20027;-61
2022/07/03 02:08:38;;;;;;;5.05;1.08;;;;;;;;;;5071064;28;20386;-61
2022/07/03 02:11:26;;;;;;;5.30;1.08;;;;;;;;;;5071523;28;20102;-61
2022/07/03 02:14:01;;;;;;;6.97;1.30;;;;;;;;;;5071763;28;20024;-61
2022/07/03 02:16:28;;;;;;;2.83;1.05;;;;;;;;;;5071481;28;20309;-62
2022/07/03 02:18:58;;;;;;;1.30;0.77;;;;;;;;;;5072943;28;20086;-62
2022/07/03 02:21:27;;;;;;;4.53;0.93;;;;;;;;;;5075124;28;20028;-61
2022/07/03 02:23:56;;;;;;;2.17;1.00;;;;;;;;;;5075258;28;20060;-61
2022/07/03 02:26:27;;;;;;;4.63;1.23;;;;;;;;;;5074781;28;20517;-61
2022/07/03 02:28:59;;;;;;;2.38;1.20;;;;;;;;;;5074941;28;20036;-61
2022/07/03 02:31:27;;;;;;;2.03;1.05;;;;;;;;;;5075032;28;20543;-61
2022/07/03 02:33:58;;;;;;;3.15;1.00;;;;;;;;;;5075075;28;20545;-61
2022/07/03 02:36:25;;;;;;;2.25;1.00;;;;;;;;;;5074610;28;20115;-61
2022/07/03 02:38:54;;;;;;;4.95;1.30;;;;;;;;;;5074981;28;20048;-61
2022/07/03 02:41:23;;;;;;;7.05;1.05;;;;;;;;;;5074778;28;20134;-61
2022/07/03 02:43:52;;;;;;;8.23;1.38;;;;;;;;;;5074965;28;20040;-61
2022/07/03 02:46:50;;;;;;;3.92;0.88;;;;;;;;;;5074599;28;20039;-61
2022/07/03 02:49:34;;;;;;;1.63;1.02;;;;;;;;;;5090287;28;20028;-61
2022/07/03 02:52:11;;;;;;;7.30;1.50;;;;;;;;;;5074679;28;20029;-61
2022/07/03 02:54:42;;;;;;;2.45;1.25;;;;;;;;;;5074493;28;20033;-61
2022/07/03 02:57:09;;;;;;;8.07;2.50;;;;;;;;;;5074568;28;20432;-61
2022/07/03 02:59:54;;;;;;;4.85;1.05;;;;;;;;;;5074802;28;20036;-61
2022/07/03 03:02:26;;;;;;;1.45;0.80;;;;;;;;;;5074412;28;20021;-61
2022/07/03 03:04:58;;;;;;;2.92;1.27;;;;;;;;;;5073907;28;20473;-62
2022/07/03 03:07:34;;;;;;;6.68;2.28;;;;;;;;;;5074276;28;20083;-61
2022/07/03 03:10:00;;;;;;;3.53;1.02;;;;;;;;;;5074539;28;20086;-61
2022/07/03 03:12:36;;;;;;;4.13;1.40;;;;;;;;;;5072988;28;20063;-61
2022/07/03 03:15:03;;;;;;;7.68;1.63;;;;;;;;;;5074308;28;20094;-61
2022/07/03 03:17:36;;;;;;;6.10;2.30;;;;;;;;;;5074093;28;20032;-61
2022/07/03 03:20:02;;;;;;;;;;;;;;;;;;5074153;28;20035;-61
2022/07/03 03:22:28;;;;;;;1.85;0.95;;;;;;;;;;5074035;28;19908;-61
2022/07/03 03:24:55;;;;;;;5.18;1.55;;;;;;;;;;5074167;28;20120;-61
2022/07/03 03:27:21;;;;;;;5.32;1.10;;;;;;;;;;5073923;28;20044;-61
2022/07/03 03:29:48;;;;;;;5.03;1.13;;;;;;;;;;5073833;28;20394;-61
2022/07/03 03:32:15;;;;;;;4.03;1.30;;;;;;;;;;5073523;28;20028;-61
2022/07/03 03:34:41;;;;;;;1.70;1.15;;;;;;;;;;5073734;28;20074;-61
2022/07/03 03:37:08;;;;;;;5.97;1.40;;;;;;;;;;5073651;28;20032;-61
2022/07/03 03:39:34;;;;;;;4.45;1.05;;;;;;;;;;5073802;28;20032;-61
2022/07/03 03:42:03;;;;;;;3.22;1.27;;;;;;;;;;5073837;28;20017;-61
2022/07/03 03:44:29;;;;;;;6.85;1.77;;;;;;;;;;5073649;28;20020;-61
2022/07/03 03:46:56;;;;;;;3.40;1.30;;;;;;;;;;5073669;28;20035;-61
2022/07/03 03:49:22;;;;;;;5.95;1.30;;;;;;;;;;5073014;28;20035;-61
2022/07/03 03:51:49;;;;;;;6.13;1.48;;;;;;;;;;5073578;28;20403;-61
2022/07/03 03:54:15;;;;;;;1.77;1.05;;;;;;;;;;5073352;28;20016;-61
2022/07/03 03:56:41;;;;;;;2.08;1.00;;;;;;;;;;5073680;28;20039;-61
2022/07/03 03:59:07;;;;;;;2.88;1.00;;;;;;;;;;5073500;28;20406;-61
2022/07/03 04:01:33;;;;;;;5.60;1.30;;;;;;;;;;5068312;28;20071;-61
2022/07/03 04:03:59;;;;;;;3.35;1.20;;;;;;;;;;5071484;28;20402;-61
2022/07/03 04:06:26;;;;;;;8.50;1.60;;;;;;;;;;5072982;28;20414;-61
2022/07/03 04:08:52;;;;;;;2.80;1.13;;;;;;;;;;5071378;28;20032;-62
2022/07/03 04:11:18;;;;;;;4.50;1.40;;;;;;;;;;5071349;28;20031;-62
2022/07/03 04:13:45;;;;;;;6.53;1.40;;;;;;;;;;5073113;28;20035;-61
2022/07/03 04:16:12;;;;;;;4.05;1.55;;;;;;;;;;5072934;28;20021;-61
2022/07/03 04:18:38;;;;;;;8.35;1.77;;;;;;;;;;5072821;28;20063;-61
2022/07/03 04:21:05;;;;;;;4.70;1.35;;;;;;;;;;5070774;28;20393;-61
2022/07/03 04:23:31;;;;;;;3.72;1.73;;;;;;;;;;5072806;28;20032;-61
2022/07/03 04:26:06;;;;;;;3.53;1.55;;;;;;;;;;5072833;28;20033;-61
2022/07/03 04:28:32;;;;;;;3.50;1.40;;;;;;;;;;5072890;28;20071;-61
2022/07/03 04:30:59;;;;;;;3.20;1.40;;;;;;;;;;5070457;28;20116;-61
2022/07/03 04:33:25;;;;;;;7.10;1.40;;;;;;;;;;5072534;28;20036;-61
2022/07/03 04:35:51;;;;;;;4.28;1.55;;;;;;;;;;5072873;28;20099;-61
2022/07/03 04:38:17;;;;;;;3.75;1.40;;;;;;;;;;5072484;28;20024;-61
2022/07/03 04:40:43;;;;;;;9.65;1.48;;;;;;;;;;5071402;28;20032;-61
2022/07/03 04:43:09;;;;;;;3.15;1.25;;;;;;;;;;5070779;28;20039;-61
2022/07/03 04:45:35;;;;;;;9.43;1.50;;;;;;;;;;5072492;28;20051;-62
2022/07/03 04:48:01;;;;;;;2.47;1.20;;;;;;;;;;5072438;28;20036;-61
2022/07/03 04:50:27;;;;;;;8.20;1.70;;;;;;;;;;5071170;28;20025;-61
2022/07/03 04:52:53;;;;;;;9.95;1.60;;;;;;;;;;5072541;28;20437;-61
2022/07/03 04:55:20;;;;;;;6.30;1.50;;;;;;;;;;5071338;28;20025;-61
2022/07/03 04:57:46;;;;;;;5.05;1.90;;;;;;;;;;5072410;28;20071;-61
2022/07/03 05:00:12;;;;;;;5.97;1.90;;;;;;;;;;5071078;28;20115;-61
2022/07/03 05:02:38;;;;;;;5.93;1.85;;;;;;;;;;5072008;28;21148;-61
2022/07/03 05:05:04;;;;;;;13.38;3.35;;;;;;;;;;5072076;28;20394;-61
2022/07/03 05:07:31;;;;;;;4.97;1.30;;;;;;;;;;5072026;28;20024;-61
2022/07/03 05:09:58;;;;;;;5.30;1.50;;;;;;;;;;5070981;28;20460;-61
2022/07/03 05:12:24;;;;;;;5.18;1.40;;;;;;;;;;5070027;28;20413;-62
2022/07/03 05:14:50;;;;;;;9.38;1.63;;;;;;;;;;5070575;28;20046;-61
2022/07/03 05:17:19;;;;;;;8.95;2.75;;;;;;;;;;5070615;28;20405;-61
2022/07/03 05:19:46;;;;;;;8.00;1.90;;;;;;;;;;5072102;28;20073;-61
2022/07/03 05:22:12;;;;;;;6.47;1.45;;;;;;;;;;5069800;28;20113;-61
2022/07/03 05:24:38;;;;;;;8.65;1.65;;;;;;;;;;5070886;28;20036;-61
2022/07/03 05:27:04;;;;;;;5.82;1.50;;;;;;;;;;5072064;28;20044;-61
2022/07/03 05:29:30;;;;;;;5.90;1.65;;;;;;;;;;5071671;28;20470;-61
2022/07/03 05:31:57;;;;;;;8.85;1.70;;;;;;;;;;5070904;28;20513;-61
2022/07/03 05:34:23;;;;;;;6.80;1.33;;;;;;;;;;5071985;28;20120;-61
2022/07/03 05:36:49;;;;;;;8.02;2.03;;;;;;;;;;5071703;28;20060;-61
2022/07/03 05:39:33;;;;;;;8.30;2.38;;;;;;;;;;5070855;28;20118;-61
2022/07/03 05:41:59;;;;;;;7.05;1.42;;;;;;;;;;5068420;28;20029;-61
2022/07/03 05:44:25;;;;;;;8.57;1.80;;;;;;;;;;5071449;28;20036;-61
2022/07/03 05:46:52;;;;;;;5.60;1.70;;;;;;;;;;5071801;28;20039;-61
2022/07/03 05:49:18;;;;;;;9.85;1.77;;;;;;;;;;5072124;28;20020;-61
2022/07/03 05:51:44;;;;;;;5.43;1.75;;;;;;;;;;5069400;28;20047;-61
2022/07/03 05:54:10;;;;;;;14.27;2.10;;;;;;;;;;5073612;28;20393;-61
2022/07/03 05:56:36;;;;;;;8.60;1.65;;;;;;;;;;5074437;28;20041;-61
2022/07/03 05:59:02;;;;;;;6.28;1.40;;;;;;;;;;5071694;28;20103;-61
2022/07/03 06:01:28;;;;;;;10.20;1.83;;;;;;;;;;5071602;28;20039;-61
2022/07/03 06:03:54;;;;;;;7.50;1.17;;;;;;;;;;5073744;28;20033;-61
2022/07/03 06:06:20;;;;;;;5.75;1.90;;;;;;;;;;5075135;28;20097;-61
2022/07/03 06:08:47;;;;;;;7.50;1.58;;;;;;;;;;5072130;28;20036;-62
2022/07/03 06:11:13;;;;;;;7.68;1.25;;;;;;;;;;5068101;28;20490;-61
2022/07/03 06:13:39;;;;;;;4.75;1.60;;;;;;;;;;5073677;28;20023;-62
2022/07/03 06:16:05;;;;;;;5.88;1.67;;;;;;;;;;5066483;28;20029;-62
2022/07/03 06:18:31;;;;;;;9.73;1.63;;;;;;;;;;5074820;28;20029;-62
2022/07/03 06:20:57;;;;;;;11.02;1.85;;;;;;;;;;5071248;28;20036;-62
2022/07/03 06:23:23;;;;;;;5.20;1.23;;;;;;;;;;5073833;28;20028;-62
2022/07/03 06:25:49;;;;;;;7.90;1.83;;;;;;;;;;5077162;28;20028;-61
2022/07/03 06:28:16;;;;;;;7.68;1.05;;;;;;;;;;5081642;28;20486;-61
2022/07/03 06:30:42;;;;;;;5.65;1.65;;;;;;;;;;5074995;28;20056;-61
2022/07/03 06:33:08;;;;;;;4.95;1.42;;;;;;;;;;5071174;28;20027;-61
2022/07/03 06:35:34;;;;;;;8.35;1.70;;;;;;;;;;5073798;28;20040;-61
2022/07/03 06:38:04;;;;;;;8.50;2.95;;;;;;;;;;5074851;28;20028;-62
2022/07/03 06:40:30;;;;;;;3.97;1.23;;;;;;;;;;5074980;28;20131;-62
2022/07/03 06:42:56;;;;;;;7.80;1.40;;;;;;;;;;5072551;28;20032;-62
2022/07/03 06:45:22;;;;;;;5.13;1.02;;;;;;;;;;5076855;28;20029;-62
2022/07/03 06:47:49;;;;;;;7.30;1.42;;;;;;;;;;5077569;28;20024;-62
2022/07/03 06:50:15;;;;;;;3.17;0.90;;;;;;;;;;5074259;28;20478;-62
2022/07/03 06:52:41;;;;;;;3.83;1.10;;;;;;;;;;5072349;28;20036;-62
2022/07/03 06:55:07;;;;;;;7.15;2.10;;;;;;;;;;5074312;28;20036;-62
2022/07/03 06:57:33;;;;;;;6.68;1.48;;;;;;;;;;5073500;28;20099;-62
2022/07/03 06:59:59;;;;;;;4.85;1.60;;;;;;;;;;5073800;28;20028;-62
2022/07/03 07:02:25;;;;;;;7.82;1.50;;;;;;;;;;5073391;28;20060;-62
2022/07/03 07:04:51;;;;;;;14.32;2.25;;;;;;;;;;5073140;28;20041;-61
2022/07/03 07:07:18;;;;;;;5.05;0.90;;;;;;;;;;5069984;28;20020;-61
2022/07/03 07:09:44;;;;;;;10.93;1.90;;;;;;;;;;5069097;28;20493;-61
2022/07/03 07:12:10;;;;;;;6.22;1.50;;;;;;;;;;5071973;28;20043;-61
2022/07/03 07:14:36;;;;;;;12.55;1.38;;;;;;;;;;5072123;28;20021;-62
2022/07/03 07:17:02;;;;;;;7.78;1.50;;;;;;;;;;5071913;28;20126;-62
2022/07/03 07:19:29;;;;;;;5.78;1.30;;;;;;;;;;5070138;28;20115;-62
2022/07/03 07:21:55;;;;;;;7.82;1.23;;;;;;;;;;5071375;28;20104;-61
2022/07/03 07:24:21;;;;;;;12.57;2.72;;;;;;;;;;5073413;28;20021;-62
2022/07/03 07:26:47;;;;;;;10.05;2.05;;;;;;;;;;5071719;28;20047;-62
2022/07/03 07:29:13;;;;;;;7.15;1.77;;;;;;;;;;5072776;28;20033;-62
2022/07/03 07:31:39;;;;;;;11.85;1.67;;;;;;;;;;5072922;28;20020;-62
2022/07/03 07:34:05;;;;;;;7.50;1.70;;;;;;;;;;5072543;28;20462;-62
2022/07/03 07:36:32;;;;;;;7.93;1.50;;;;;;;;;;5071570;28;20029;-62
2022/07/03 07:38:58;;;;;;;8.38;1.67;;;;;;;;;;5072832;28;20028;-62
2022/07/03 07:41:24;;;;;;;8.57;1.58;;;;;;;;;;5070588;28;20507;-62
2022/07/03 07:43:51;;;;;;;10.23;1.52;;;;;;;;;;5071995;28;20078;-62
2022/07/03 07:46:17;;;;;;;8.00;1.50;;;;;;;;;;5071305;28;20028;-62
2022/07/03 07:48:44;;;;;;;13.30;2.10;;;;;;;;;;5071349;28;20033;-62
2022/07/03 07:51:11;;;;;;;7.30;1.70;;;;;;;;;;5068011;28;20099;-62
2022/07/03 07:53:37;;;;;;;9.55;2.47;;;;;;;;;;5068398;28;20040;-65
2022/07/03 07:56:03;;;;;;;7.57;1.23;;;;;;;;;;5065608;28;20025;-61
2022/07/03 07:58:30;;;;;;;6.18;1.63;;;;;;;;;;5059650;28;20036;-60
2022/07/03 08:06:25;;;;;;;10.25;1.80;;;;;;;;;;5058868;28;20036;-61
2022/07/03 08:08:51;;;;;;;13.25;2.42;;;;;;;;;;5060730;28;20025;-61
2022/07/03 08:11:18;;;;;;;12.57;2.17;;;;;;;;;;5059607;28;20027;-69
2022/07/03 08:13:45;;;;;;;13.25;2.63;;;;;;;;;;5061078;28;20032;-68
2022/07/03 08:16:12;;;;;;;13.23;1.92;;;;;;;;;;5057441;28;20025;-68
2022/07/03 08:18:38;;;;;;;9.85;2.10;;;;;;;;;;5059555;28;20021;-68
2022/07/03 08:21:05;;;;;;;8.85;2.85;;;;;;;;;;5059828;28;20078;-69
2022/07/03 08:23:31;;;;;;;5.07;1.60;;;;;;;;;;5058824;28;20033;-69
2022/07/03 08:25:57;;;;;;;7.72;1.75;;;;;;;;;;5060305;28;20032;-61
2022/07/03 08:28:23;;;;;;;11.18;2.60;;;;;;;;;;5067106;28;20390;-61
2022/07/03 08:30:50;;;;;;;12.90;3.15;;;;;;;;;;5069617;28;20020;-61
2022/07/03 08:33:16;;;;;;;12.00;2.10;;;;;;;;;;5066713;28;20025;-61
2022/07/03 08:35:42;;;;;;;8.32;2.00;;;;;;;;;;5070067;28;20029;-61
2022/07/03 08:38:08;;;;;;;8.27;1.95;;;;;;;;;;5071956;28;20402;-61
2022/07/03 08:40:35;;;;;;;7.60;1.90;;;;;;;;;;5070913;28;20031;-61
2022/07/03 08:43:01;;;;;;;8.05;2.20;;;;;;;;;;5070799;28;20035;-61
2022/07/03 08:45:28;;;;;;;11.93;1.80;;;;;;;;;;5071065;28;20541;-61
2022/07/03 08:47:55;;;;;;;11.57;2.58;;;;;;;;;;5071246;28;20543;-61
2022/07/03 08:50:22;;;;;;;8.15;1.63;;;;;;;;;;5070808;28;20108;-61
2022/07/03 08:52:48;;;;;;;7.57;1.40;;;;;;;;;;5070701;28;20013;-61
2022/07/03 08:55:15;;;;;;;4.43;1.20;;;;;;;;;;5070646;28;20028;-61
2022/07/03 08:57:42;;;;;;;3.85;1.08;;;;;;;;;;5072216;28;20033;-61
2022/07/03 09:00:12;;;;;;;8.77;1.08;;;;;;;;;;5071321;28;20111;-61
2022/07/03 09:02:43;;;;;;;7.50;1.30;;;;;;;;;;5064736;28;20184;-63
2022/07/03 09:05:09;;;;;;;6.60;1.30;;;;;;;;;;5069448;28;20036;-61
2022/07/03 09:07:36;;;;;;;5.68;1.00;;;;;;;;;;5068845;28;20091;-62
2022/07/03 09:10:04;;;;;;;4.75;0.95;;;;;;;;;;5070239;28;20024;-62
2022/07/03 09:12:31;;;;;;;2.05;1.00;;;;;;;;;;5070619;28;20482;-61
2022/07/03 09:14:57;;;;;;;4.65;1.08;;;;;;;;;;5071436;28;20024;-62
2022/07/03 09:17:24;;;;;;;5.90;1.20;;;;;;;;;;5068533;28;20037;-61
2022/07/03 09:19:50;;;;;;;5.90;1.88;;;;;;;;;;5070517;28;20025;-62
2022/07/03 09:22:22;;;;;;;5.03;1.65;;;;;;;;;;5070160;28;20036;-61
2022/07/03 09:24:52;;;;;;;11.35;1.85;;;;;;;;;;5071219;28;20008;-61
2022/07/03 09:27:23;;;;;;;13.00;2.45;;;;;;;;;;5068612;28;20123;-61
2022/07/03 09:30:03;;;;;;;8.90;2.13;;;;;;;;;;5067424;28;20036;-61
2022/07/03 09:32:38;;;;;;;8.68;1.92;;;;;;;;;;5068301;28;20032;-61
2022/07/03 09:35:10;;;;;;;10.70;2.08;;;;;;;;;;5065783;28;20397;-61
2022/07/03 09:37:36;;;;;;;10.53;2.03;;;;;;;;;;5069743;28;20025;-61
2022/07/03 09:40:03;;;;;;;10.38;1.90;;;;;;;;;;5070761;28;20776;-61
2022/07/03 09:42:29;;;;;;;12.45;2.30;;;;;;;;;;5066444;28;20043;-61
2022/07/03 09:44:56;;;;;;;9.95;2.80;;;;;;;;;;5068332;28;20028;-62
2022/07/03 09:47:25;;;;;;;9.05;2.10;;;;;;;;;;5064891;28;20025;-61
2022/07/03 09:49:54;;;;;;;5.95;1.70;;;;;;;;;;5071309;28;20067;-64
2022/07/03 09:52:32;;;;;;;9.13;1.70;;;;;;;;;;5069982;28;20063;-65
2022/07/03 09:55:10;;;;;;;14.68;2.60;;;;;;;;;;5071415;28;20028;-65
2022/07/03 09:57:37;;;;;;;10.45;2.70;;;;;;;;;;5072294;28;20056;-65
2022/07/03 10:00:11;;;;;;;10.15;2.17;;;;;;;;;;5070738;28;20074;-65
2022/07/03 10:02:56;;;;;;;11.77;2.00;;;;;;;;;;5069073;28;20024;-65
2022/07/03 10:05:23;;;;;;;6.57;1.80;;;;;;;;;;5071042;28;20115;-65
2022/07/03 10:07:51;;;;;;;14.18;1.90;;;;;;;;;;5069758;28;20032;-65
2022/07/03 10:10:17;;;;;;;13.18;2.40;;;;;;;;;;5071348;28;20393;-65
2022/07/03 10:12:44;;;;;;;10.40;2.13;;;;;;;;;;5070408;28;20013;-65
2022/07/03 10:15:11;;;;;;;6.00;1.60;;;;;;;;;;5071866;28;20033;-65
2022/07/03 10:17:38;;;;;;;4.65;1.63;;;;;;;;;;5061904;28;20024;-65
2022/07/03 10:20:04;;;;;;;9.80;2.03;;;;;;;;;;5069797;28;20032;-66
2022/07/03 10:22:32;;;;;;;7.65;1.73;;;;;;;;;;5070930;28;20033;-66
2022/07/03 10:24:59;;;;;;;14.52;2.38;;;;;;;;;;5070802;28;20480;-66
2022/07/03 10:27:25;;;;;;;10.07;2.53;;;;;;;;;;5067864;28;20540;-66
2022/07/03 10:29:53;;;;;;;6.30;1.60;;;;;;;;;;5069974;28;20036;-66
2022/07/03 10:32:19;;;;;;;5.07;1.52;;;;;;;;;;5069305;28;21262;-66
2022/07/03 10:34:45;;;;;;;8.23;1.40;;;;;;;;;;5069106;28;20035;-66
2022/07/03 10:37:15;;;;;;;6.18;1.75;;;;;;;;;;5071223;28;20526;-66
2022/07/03 10:45:38;;;;;;;4.80;1.15;;;;;;;;;;5072107;28;20032;-66
2022/07/03 10:48:04;;;;;;;8.13;2.05;;;;;;;;;;5070405;28;20075;-66
2022/07/03 10:50:36;;;;;;;4.05;1.00;;;;;;;;;;5073221;28;20021;-66
2022/07/03 10:53:21;;;;;;;7.37;1.30;;;;;;;;;;5073230;28;20036;-66
2022/07/03 10:56:04;;;;;;;4.88;1.45;;;;;;;;;;5072928;28;20310;-66
2022/07/03 10:58:30;;;;;;;9.27;2.35;;;;;;;;;;5073323;28;20036;-66
2022/07/03 11:00:58;;;;;;;8.77;1.45;;;;;;;;;;5072515;28;20032;-66
2022/07/03 11:03:42;;;;;;;10.18;1.60;;;;;;;;;;5068877;28;20097;-66
2022/07/03 11:06:09;;;;;;;4.65;1.52;;;;;;;;;;5073207;28;20043;-66
2022/07/03 11:08:55;;;;;;;9.65;1.45;;;;;;;;;;5073320;28;20028;-66
2022/07/03 11:14:19;;;;;;;7.45;1.27;;;;;;;;;;5062086;28;20064;-65
2022/07/03 11:16:46;;;;;;;7.10;1.20;;;;;;;;;;5069801;28;20517;-65
2022/07/03 11:19:12;;;;;;;10.00;1.80;;;;;;;;;;5069052;28;20107;-64
2022/07/03 11:21:42;;;;;;;6.25;1.75;;;;;;;;;;5065289;28;20036;-65
2022/07/03 11:24:28;;;;;;;7.68;1.50;;;;;;;;;;5066020;28;20488;-65
2022/07/03 11:27:14;;;;;;;7.45;1.50;;;;;;;;;;5061981;28;20044;-66
2022/07/03 11:29:40;;;;;;;5.10;1.38;;;;;;;;;;5064238;28;20025;-66
2022/07/03 11:32:25;;;;;;;6.13;1.40;;;;;;;;;;5063292;28;20029;-66
2022/07/03 11:34:51;;;;;;;9.55;2.17;;;;;;;;;;5061210;28;20034;-66
2022/07/03 11:37:20;;;;;;;6.03;1.45;;;;;;;;;;5060257;28;20388;-66
2022/07/03 11:39:48;;;;;;;8.88;2.08;;;;;;;;;;5067945;28;20040;-66
2022/07/03 11:42:15;;;;;;;13.18;1.92;;;;;;;;;;5062049;28;20162;-67
2022/07/03 11:44:41;;;;;;;10.82;2.45;;;;;;;;;;5063874;28;20032;-66
2022/07/03 11:47:07;;;;;;;6.53;1.50;;;;;;;;;;5061368;28;20037;-66
2022/07/03 11:49:34;;;;;;;8.40;1.40;;;;;;;;;;5060987;28;20028;-66
2022/07/03 11:52:01;;;;;;;5.38;1.27;;;;;;;;;;5057133;28;20513;-66
2022/07/03 11:54:31;;;;;;;3.72;1.20;;;;;;;;;;5064419;28;20016;-66
2022/07/03 11:56:57;;;;;;;6.20;1.50;;;;;;;;;;5072543;28;20385;-66
2022/07/03 11:59:23;;;;;;;9.68;1.33;;;;;;;;;;5070756;28;20035;-66
2022/07/03 12:01:50;;;;;;;4.03;1.15;;;;;;;;;;5064855;28;20041;-66
2022/07/03 12:04:17;;;;;;;10.30;1.90;;;;;;;;;;5060349;28;20079;-66
2022/07/03 12:06:43;;;;;;;5.10;1.23;;;;;;;;;;5057861;28;20039;-66
2022/07/03 12:09:14;;;;;;;6.93;1.30;;;;;;;;;;5060562;28;20040;-66
2022/07/03 12:11:40;;;;;;;9.73;1.42;;;;;;;;;;5063708;28;20025;-66
2022/07/03 12:14:06;;;;;;;5.40;1.30;;;;;;;;;;5052097;28;20094;-66
2022/07/03 12:16:33;;;;;;;1.95;0.90;;;;;;;;;;5056297;28;20040;-66
2022/07/03 12:19:03;;;;;;;3.63;1.15;;;;;;;;;;5058657;28;20028;-66
2022/07/03 12:21:36;;;;;;;3.90;1.00;;;;;;;;;;5058658;28;20028;-66
2022/07/03 12:24:09;;;;;;;7.00;1.40;;;;;;;;;;5053753;28;20083;-66
2022/07/03 12:26:36;;;;;;;;;;;;;;;;;;5056299;28;20475;-66
2022/07/03 12:29:03;;;;;;;11.40;1.30;;;;;;;;;;5056757;28;19991;-66
2022/07/03 12:31:30;;;;;;;4.97;1.10;;;;;;;;;;5056090;28;20486;-66
2022/07/03 12:33:58;;;;;;;4.38;1.17;;;;;;;;;;5058728;28;20021;-66
2022/07/03 12:36:24;;;;;;;4.82;1.00;;;;;;;;;;5056176;28;20060;-66
2022/07/03 12:38:54;;;;;;;2.40;0.90;;;;;;;;;;5054174;28;20040;-66
2022/07/03 12:41:21;;;;;;;4.22;1.17;;;;;;;;;;5053322;28;20075;-66
2022/07/03 12:43:48;;;;;;;3.03;0.82;;;;;;;;;;5056827;28;20012;-66
2022/07/03 12:46:32;;;;;;;5.53;0.93;;;;;;;;;;5058632;28;20032;-66
2022/07/03 12:49:00;;;;;;;4.20;0.90;;;;;;;;;;5063580;28;20028;-67
2022/07/03 12:51:45;;;;;;;7.03;1.25;;;;;;;;;;5057385;28;20035;-66
2022/07/03 12:54:11;;;;;;;4.63;1.00;;;;;;;;;;5063053;28;20040;-67
2022/07/03 12:56:37;;;;;;;3.95;0.80;;;;;;;;;;5066245;28;20028;-66
2022/07/03 12:59:19;;;;;;;4.25;0.85;;;;;;;;;;5063912;28;20067;-66
2022/07/03 13:01:46;;;;;;;2.05;0.90;;;;;;;;;;5066412;28;20394;-66
2022/07/03 13:04:15;;;;;;;2.72;0.85;;;;;;;;;;5058478;28;20544;-66
2022/07/03 13:06:42;;;;;;;3.00;0.82;;;;;;;;;;5057343;28;20433;-66
2022/07/03 13:09:09;;;;;;;5.38;1.20;;;;;;;;;;5059640;28;20093;-66
2022/07/03 13:11:36;;;;;;;4.32;0.70;;;;;;;;;;5067277;28;20024;-67
2022/07/03 13:14:15;;;;;;;3.53;0.90;;;;;;;;;;5071685;28;20029;-67
2022/07/03 13:16:49;;;;;;;4.45;0.88;;;;;;;;;;5066192;28;20036;-66
2022/07/03 13:19:26;;;;;;;3.72;0.80;;;;;;;;;;5069874;28;20044;-68
2022/07/03 13:21:53;;;;;;;5.60;0.90;;;;;;;;;;5059227;28;20040;-67
2022/07/03 13:24:20;;;;;;;2.17;0.88;;;;;;;;;;5069974;28;20091;-65
2022/07/03 13:26:47;;;;;;;3.92;0.77;;;;;;;;;;5070049;28;20033;-64
2022/07/03 13:29:13;;;;;;;5.03;0.73;;;;;;;;;;5070063;28;20020;-64
2022/07/03 13:31:39;;;;;;;4.88;0.85;;;;;;;;;;5071904;28;20052;-64
2022/07/03 13:34:06;;;;;;;4.15;1.85;;;;;;;;;;5071552;28;20035;-64
2022/07/03 13:36:32;;;;;;;3.72;0.80;;;;;;;;;;5072130;28;20039;-64
2022/07/03 13:38:59;;;;;;;1.85;0.90;;;;;;;;;;5072109;28;20024;-64
2022/07/03 13:41:25;;;;;;;5.40;0.95;;;;;;;;;;5071712;28;20063;-64
2022/07/03 13:43:51;;;;;;;3.83;1.08;;;;;;;;;;5071700;28;20111;-64
2022/07/03 13:46:18;;;;;;;7.13;1.17;;;;;;;;;;5071407;28;20028;-65
2022/07/03 13:48:44;;;;;;;1.65;0.68;;;;;;;;;;5071846;28;20094;-65
2022/07/03 13:51:11;;;;;;;2.92;0.82;;;;;;;;;;5072109;28;20032;-65
2022/07/03 13:53:37;;;;;;;4.72;1.13;;;;;;;;;;5072038;28;20073;-65
2022/07/03 13:56:03;;;;;;;3.88;1.00;;;;;;;;;;5072172;28;20075;-65
2022/07/03 13:58:29;;;;;;;5.25;1.30;;;;;;;;;;5071386;28;20020;-65
2022/07/03 14:00:55;;;;;;;7.57;0.90;;;;;;;;;;5072011;28;20020;-65
2022/07/03 14:03:22;;;;;;;5.13;1.20;;;;;;;;;;5071715;28;20031;-65
2022/07/03 14:05:51;;;;;;;2.30;1.02;;;;;;;;;;5071760;28;20469;-65
2022/07/03 14:08:18;;;;;;;2.25;1.00;;;;;;;;;;5071678;28;20469;-66
2022/07/03 14:10:44;;;;;;;1.95;0.70;;;;;;;;;;5071812;28;20033;-65
2022/07/03 14:13:10;;;;;;;3.17;0.70;;;;;;;;;;5070996;28;20401;-65
2022/07/03 14:15:36;;;;;;;3.50;0.80;;;;;;;;;;5073209;28;20109;-65
2022/07/03 14:18:02;;;;;;;2.80;0.60;;;;;;;;;;5074591;28;20056;-65
2022/07/03 14:20:29;;;;;;;1.85;0.77;;;;;;;;;;5075276;28;20090;-65
2022/07/03 14:22:55;;;;;;;5.45;0.82;;;;;;;;;;5075572;28;20031;-65
2022/07/03 14:25:21;;;;;;;4.03;0.52;;;;;;;;;;5075372;28;20031;-65
2022/07/03 14:33:19;;;;;;;1.45;0.63;;;;;;;;;;5073425;28;20296;-65
2022/07/03 14:35:45;;;;;;;1.83;0.93;;;;;;;;;;5075009;28;20094;-65
2022/07/03 14:38:11;;;;;;;1.92;0.73;;;;;;;;;;5074645;28;20115;-65
2022/07/03 14:40:37;;;;;;;2.75;0.70;;;;;;;;;;5074851;28;20042;-65
2022/07/03 14:43:04;;;;;;;4.63;0.98;;;;;;;;;;5075005;28;20032;-65
2022/07/03 14:45:30;;;;;;;2.97;0.68;;;;;;;;;;5074860;28;20028;-65
2022/07/03 14:47:56;;;;;;;4.38;0.57;;;;;;;;;;5074606;28;20052;-65
2022/07/03 14:50:22;;;;;;;1.55;0.52;;;;;;;;;;5074615;28;20044;-65
2022/07/03 14:52:48;;;;;;;3.55;0.82;;;;;;;;;;5075156;28;20031;-65
2022/07/03 14:55:14;;;;;;;3.30;0.88;;;;;;;;;;5074575;28;20363;-65
2022/07/03 14:57:44;;;;;;;3.08;0.75;;;;;;;;;;5073744;28;20029;-65
2022/07/03 15:00:14;;;;;;;3.45;0.95;;;;;;;;;;5073389;28;20506;-65
2022/07/03 15:03:15;;;;;;;3.08;0.73;;;;;;;;;;5074236;28;20033;-65
2022/07/03 15:05:45;;;;;;;3.92;1.00;;;;;;;;;;5004124;28;20062;-63
2022/07/03 15:08:17;;;;;;;3.55;1.02;;;;;;;;;;5002442;28;20459;-62